createdAt,value
2018-06-03T00:00:11.836Z,0.00
2018-06-03T00:01:11.567Z,0.00
2018-06-03T00:02:11.602Z,0.00
2018-06-03T00:03:11.638Z,0.00
2018-06-03T00:04:11.773Z,0.00
2018-06-03T00:05:11.702Z,0.00
2018-06-03T00:06:12.103Z,0.00
2018-06-03T00:07:11.780Z,0.00
2018-06-03T00:08:11.823Z,0.00
2018-06-03T00:09:11.836Z,0.00
2018-06-03T00:10:11.869Z,0.00
2018-06-03T00:11:11.903Z,0.00
2018-06-03T00:12:12.521Z,0.00
2018-06-03T00:13:12.026Z,0.00
2018-06-03T00:14:12.153Z,0.00
2018-06-03T00:15:12.037Z,0.00
2018-06-03T00:16:12.118Z,0.00
2018-06-03T00:17:12.103Z,0.00
2018-06-03T00:18:12.489Z,0.00
2018-06-03T00:19:12.170Z,0.00
2018-06-03T00:20:12.204Z,0.00
2018-06-03T00:21:12.237Z,0.00
2018-06-03T00:22:12.422Z,0.00
2018-06-03T00:23:12.317Z,0.00
2018-06-03T00:24:12.690Z,0.00
2018-06-03T00:25:12.370Z,0.00
2018-06-03T00:26:12.410Z,0.00
2018-06-03T00:27:12.448Z,0.00
2018-06-03T00:28:12.480Z,0.00
2018-06-03T00:29:12.522Z,0.00
2018-06-03T00:30:12.887Z,0.00
2018-06-03T00:31:12.574Z,0.00
2018-06-03T00:32:12.605Z,0.00
2018-06-03T00:33:12.648Z,0.00
2018-06-03T00:34:12.674Z,0.00
2018-06-03T00:35:12.715Z,0.00
2018-06-03T00:36:13.088Z,0.00
2018-06-03T00:37:12.777Z,0.00
2018-06-03T00:38:12.855Z,0.00
2018-06-03T00:39:12.838Z,0.00
2018-06-03T00:40:12.929Z,0.00
2018-06-03T00:41:12.906Z,0.00
2018-06-03T00:42:13.292Z,0.00
2018-06-03T00:43:12.972Z,0.00
2018-06-03T00:44:13.005Z,0.00
2018-06-03T00:45:13.038Z,0.00
2018-06-03T00:46:13.123Z,0.00
2018-06-03T00:47:13.106Z,0.00
2018-06-03T00:48:13.138Z,0.00
2018-06-03T00:49:13.474Z,0.00
2018-06-03T00:50:13.408Z,0.00
2018-06-03T00:51:13.261Z,0.00
2018-06-03T00:52:13.275Z,0.00
2018-06-03T00:53:13.305Z,0.00
2018-06-03T00:54:13.342Z,0.00
2018-06-03T00:55:13.373Z,0.00
2018-06-03T00:56:13.764Z,0.00
2018-06-03T00:57:13.441Z,0.00
2018-06-03T00:58:13.478Z,0.00
2018-06-03T00:59:13.508Z,0.00
2018-06-03T01:00:13.639Z,0.00
2018-06-03T01:01:13.574Z,0.00
2018-06-03T01:02:13.612Z,0.00
2018-06-03T01:03:13.992Z,0.00
2018-06-03T01:04:13.698Z,0.00
2018-06-03T01:05:13.709Z,0.00
2018-06-03T01:06:13.743Z,0.00
2018-06-03T01:07:13.826Z,0.00
2018-06-03T01:08:13.807Z,0.00
2018-06-03T01:09:13.892Z,0.00
2018-06-03T01:10:14.225Z,0.00
2018-06-03T01:11:13.911Z,0.00
2018-06-03T01:12:13.941Z,0.00
2018-06-03T01:13:13.973Z,0.00
2018-06-03T01:14:14.010Z,0.00
2018-06-03T01:15:14.092Z,0.00
2018-06-03T01:16:14.125Z,0.00
2018-06-03T01:17:14.459Z,0.00
2018-06-03T01:18:14.142Z,0.00
2018-06-03T01:19:14.177Z,0.00
2018-06-03T01:20:14.209Z,0.00
2018-06-03T01:21:14.255Z,0.00
2018-06-03T01:22:14.278Z,0.00
2018-06-03T01:23:14.307Z,0.00
2018-06-03T01:24:14.646Z,0.00
2018-06-03T01:25:14.378Z,0.00
2018-06-03T01:26:14.409Z,0.00
2018-06-03T01:27:14.443Z,0.00
2018-06-03T01:28:14.476Z,0.00
2018-06-03T01:29:14.519Z,0.00
2018-06-03T01:30:14.541Z,0.00
2018-06-03T01:31:14.927Z,0.00
2018-06-03T01:32:14.612Z,0.00
2018-06-03T01:33:14.648Z,0.00
2018-06-03T01:34:14.675Z,0.00
2018-06-03T01:35:14.707Z,0.00
2018-06-03T01:36:14.743Z,0.00
2018-06-03T01:37:14.774Z,0.00
2018-06-03T01:38:15.213Z,0.00
2018-06-03T01:39:14.840Z,0.00
2018-06-03T01:40:14.935Z,0.00
2018-06-03T01:41:14.908Z,0.00
2018-06-03T01:42:14.946Z,0.00
2018-06-03T01:43:14.981Z,0.00
2018-06-03T01:44:15.157Z,0.00
2018-06-03T01:45:15.392Z,0.00
2018-06-03T01:46:15.076Z,0.00
2018-06-03T01:47:15.113Z,0.00
2018-06-03T01:48:15.191Z,0.00
2018-06-03T01:49:15.176Z,0.00
2018-06-03T01:50:15.208Z,0.00
2018-06-03T01:51:15.279Z,0.00
2018-06-03T01:52:15.626Z,0.00
2018-06-03T01:53:15.309Z,0.00
2018-06-03T01:54:15.410Z,0.00
2018-06-03T01:55:15.376Z,0.00
2018-06-03T01:56:15.460Z,0.00
2018-06-03T01:57:15.491Z,0.00
2018-06-03T01:58:15.577Z,0.00
2018-06-03T01:59:15.820Z,0.00
2018-06-03T02:00:15.562Z,0.00
2018-06-03T02:01:15.576Z,0.00
2018-06-03T02:02:15.613Z,0.00
2018-06-03T02:03:15.693Z,0.00
2018-06-03T02:04:15.677Z,0.00
2018-06-03T02:05:15.711Z,0.00
2018-06-03T02:06:16.097Z,0.00
2018-06-03T02:07:15.787Z,0.00
2018-06-03T02:08:15.809Z,0.00
2018-06-03T02:09:15.843Z,0.00
2018-06-03T02:10:15.885Z,0.00
2018-06-03T02:11:15.928Z,0.00
2018-06-03T02:12:16.293Z,0.00
2018-06-03T02:13:16.076Z,0.00
2018-06-03T02:14:16.013Z,0.00
2018-06-03T02:15:16.045Z,0.00
2018-06-03T02:16:16.074Z,0.00
2018-06-03T02:17:16.108Z,0.00
2018-06-03T02:18:16.492Z,0.00
2018-06-03T02:19:16.176Z,0.00
2018-06-03T02:20:16.206Z,0.00
2018-06-03T02:21:16.242Z,0.00
2018-06-03T02:22:16.277Z,0.00
2018-06-03T02:23:16.358Z,0.00
2018-06-03T02:24:16.696Z,0.00
2018-06-03T02:25:16.377Z,0.00
2018-06-03T02:26:16.415Z,0.00
2018-06-03T02:27:16.444Z,0.00
2018-06-03T02:28:16.483Z,0.00
2018-06-03T02:29:16.760Z,0.00
2018-06-03T02:30:16.898Z,0.00
2018-06-03T02:31:16.576Z,0.00
2018-06-03T02:32:16.607Z,0.00
2018-06-03T02:33:16.692Z,0.00
2018-06-03T02:34:16.674Z,0.00
2018-06-03T02:35:16.710Z,0.00
2018-06-03T02:36:17.091Z,0.00
2018-06-03T02:37:16.823Z,0.00
2018-06-03T02:38:16.818Z,0.00
2018-06-03T02:39:16.891Z,0.00
2018-06-03T02:40:16.873Z,0.00
2018-06-03T02:41:16.914Z,0.00
2018-06-03T02:42:16.945Z,0.00
2018-06-03T02:43:16.975Z,0.00
2018-06-03T02:44:17.007Z,0.00
2018-06-03T02:45:17.089Z,0.00
2018-06-03T02:46:17.083Z,0.00
2018-06-03T02:47:17.106Z,0.00
2018-06-03T02:48:17.439Z,0.00
2018-06-03T02:49:17.177Z,0.00
2018-06-03T02:50:17.209Z,4.00
2018-06-03T02:51:17.299Z,4.00
2018-06-03T02:52:17.329Z,4.00
2018-06-03T02:53:17.311Z,4.00
2018-06-03T02:54:17.693Z,4.00
2018-06-03T02:55:17.378Z,4.00
2018-06-03T02:56:17.408Z,4.00
2018-06-03T02:57:17.439Z,8.00
2018-06-03T02:58:17.473Z,4.00
2018-06-03T02:59:17.506Z,8.00
2018-06-03T03:00:17.894Z,8.00
2018-06-03T03:01:17.631Z,8.00
2018-06-03T03:02:17.608Z,12.00
2018-06-03T03:03:17.640Z,8.00
2018-06-03T03:04:17.673Z,12.00
2018-06-03T03:05:17.710Z,16.00
2018-06-03T03:06:18.092Z,16.00
2018-06-03T03:07:17.774Z,20.00
2018-06-03T03:08:17.868Z,20.00
2018-06-03T03:09:17.844Z,24.00
2018-06-03T03:10:17.875Z,24.00
2018-06-03T03:11:17.906Z,28.00
2018-06-03T03:12:18.289Z,32.00
2018-06-03T03:13:17.973Z,36.00
2018-06-03T03:14:18.005Z,40.00
2018-06-03T03:15:18.039Z,40.00
2018-06-03T03:16:18.077Z,44.00
2018-06-03T03:17:18.159Z,48.00
2018-06-03T03:18:18.494Z,56.00
2018-06-03T03:19:18.175Z,60.00
2018-06-03T03:20:18.206Z,68.00
2018-06-03T03:21:18.240Z,72.00
2018-06-03T03:22:18.270Z,76.00
2018-06-03T03:23:18.408Z,84.00
2018-06-03T03:24:18.687Z,88.00
2018-06-03T03:25:18.370Z,96.00
2018-06-03T03:26:18.412Z,104.00
2018-06-03T03:27:18.439Z,112.00
2018-06-03T03:28:18.529Z,116.00
2018-06-03T03:29:18.572Z,128.00
2018-06-03T03:30:18.603Z,136.00
2018-06-03T03:31:18.922Z,144.00
2018-06-03T03:32:18.611Z,160.00
2018-06-03T03:33:18.688Z,168.00
2018-06-03T03:34:18.728Z,176.00
2018-06-03T03:35:18.756Z,188.00
2018-06-03T03:36:18.744Z,196.00
2018-06-03T03:37:18.770Z,204.00
2018-06-03T03:38:19.103Z,212.00
2018-06-03T03:39:18.846Z,224.00
2018-06-03T03:40:18.872Z,232.00
2018-06-03T03:41:18.951Z,244.00
2018-06-03T03:42:18.950Z,256.00
2018-06-03T03:43:18.966Z,264.00
2018-06-03T03:44:19.001Z,280.00
2018-06-03T03:45:19.332Z,292.00
2018-06-03T03:46:19.065Z,308.00
2018-06-03T03:47:19.101Z,320.00
2018-06-03T03:48:19.134Z,336.00
2018-06-03T03:49:19.163Z,352.00
2018-06-03T03:50:19.200Z,360.00
2018-06-03T03:51:19.230Z,376.00
2018-06-03T03:52:19.621Z,384.00
2018-06-03T03:53:19.300Z,400.00
2018-06-03T03:54:19.330Z,412.00
2018-06-03T03:55:19.363Z,420.00
2018-06-03T03:56:19.399Z,428.00
2018-06-03T03:57:19.428Z,436.00
2018-06-03T03:58:19.466Z,452.00
2018-06-03T03:59:19.846Z,460.00
2018-06-03T04:00:19.526Z,476.00
2018-06-03T04:01:19.916Z,488.00
2018-06-03T04:02:19.598Z,500.00
2018-06-03T04:03:19.669Z,516.00
2018-06-03T04:04:19.675Z,532.00
2018-06-03T04:05:19.707Z,540.00
2018-06-03T04:06:20.110Z,556.00
2018-06-03T04:07:19.768Z,568.00
2018-06-03T04:08:19.798Z,588.00
2018-06-03T04:09:19.827Z,592.00
2018-06-03T04:10:19.858Z,608.00
2018-06-03T04:11:19.946Z,624.00
2018-06-03T04:12:19.925Z,640.00
2018-06-03T04:13:20.338Z,660.00
2018-06-03T04:14:20.000Z,680.00
2018-06-03T04:15:20.026Z,688.00
2018-06-03T04:16:20.065Z,696.00
2018-06-03T04:17:20.170Z,712.00
2018-06-03T04:18:20.126Z,732.00
2018-06-03T04:19:20.200Z,748.00
2018-06-03T04:20:20.490Z,768.00
2018-06-03T04:21:20.230Z,796.00
2018-06-03T04:22:20.313Z,836.00
2018-06-03T04:23:20.291Z,880.00
2018-06-03T04:24:20.322Z,912.00
2018-06-03T04:25:20.357Z,940.00
2018-06-03T04:26:20.393Z,948.00
2018-06-03T04:27:20.791Z,956.00
2018-06-03T04:28:20.585Z,964.00
2018-06-03T04:29:20.496Z,956.00
2018-06-03T04:30:20.523Z,948.00
2018-06-03T04:31:20.564Z,960.00
2018-06-03T04:32:20.639Z,976.00
2018-06-03T04:33:20.635Z,984.00
2018-06-03T04:34:20.957Z,1008.00
2018-06-03T04:35:20.697Z,1036.00
2018-06-03T04:36:20.735Z,1044.00
2018-06-03T04:37:20.761Z,1056.00
2018-06-03T04:38:20.854Z,1076.00
2018-06-03T04:39:20.826Z,1112.00
2018-06-03T04:40:20.940Z,1140.00
2018-06-03T04:41:21.266Z,1140.00
2018-06-03T04:42:20.926Z,1144.00
2018-06-03T04:43:20.967Z,1160.00
2018-06-03T04:44:21.068Z,1184.00
2018-06-03T04:45:21.032Z,1200.00
2018-06-03T04:46:21.086Z,1204.00
2018-06-03T04:47:21.094Z,1216.00
2018-06-03T04:48:21.195Z,1224.00
2018-06-03T04:49:21.209Z,1224.00
2018-06-03T04:50:21.193Z,1224.00
2018-06-03T04:51:21.242Z,1228.00
2018-06-03T04:52:21.264Z,1240.00
2018-06-03T04:53:21.297Z,1260.00
2018-06-03T04:54:21.688Z,1280.00
2018-06-03T04:55:21.365Z,1300.00
2018-06-03T04:56:21.395Z,1328.00
2018-06-03T04:57:21.436Z,1356.00
2018-06-03T04:58:21.469Z,1384.00
2018-06-03T04:59:21.501Z,1408.00
2018-06-03T05:00:21.889Z,1424.00
2018-06-03T05:01:21.563Z,1448.00
2018-06-03T05:02:21.595Z,1456.00
2018-06-03T05:03:21.630Z,1484.00
2018-06-03T05:04:21.663Z,1516.00
2018-06-03T05:05:21.700Z,1548.00
2018-06-03T05:06:22.081Z,1568.00
2018-06-03T05:07:21.769Z,1592.00
2018-06-03T05:08:21.817Z,1632.00
2018-06-03T05:09:21.830Z,1684.00
2018-06-03T05:10:21.913Z,1732.00
2018-06-03T05:11:21.904Z,1744.00
2018-06-03T05:12:22.297Z,1724.00
2018-06-03T05:13:22.077Z,1704.00
2018-06-03T05:14:22.005Z,1708.00
2018-06-03T05:15:22.034Z,1740.00
2018-06-03T05:16:22.085Z,1764.00
2018-06-03T05:17:22.150Z,1768.00
2018-06-03T05:18:22.507Z,1772.00
2018-06-03T05:19:22.217Z,1776.00
2018-06-03T05:20:22.209Z,1784.00
2018-06-03T05:21:22.233Z,1796.00
2018-06-03T05:22:22.273Z,1816.00
2018-06-03T05:23:22.397Z,1832.00
2018-06-03T05:24:22.714Z,1856.00
2018-06-03T05:25:22.375Z,1872.00
2018-06-03T05:26:22.406Z,1892.00
2018-06-03T05:27:22.439Z,1924.00
2018-06-03T05:28:22.524Z,1956.00
2018-06-03T05:29:22.507Z,2012.00
2018-06-03T05:30:22.844Z,2052.00
2018-06-03T05:31:22.581Z,2100.00
2018-06-03T05:32:22.608Z,2172.00
2018-06-03T05:33:22.693Z,2232.00
2018-06-03T05:34:22.675Z,2264.00
2018-06-03T05:35:22.732Z,2304.00
2018-06-03T05:36:23.043Z,2340.00
2018-06-03T05:37:22.778Z,2344.00
2018-06-03T05:38:22.814Z,2340.00
2018-06-03T05:39:22.895Z,2352.00
2018-06-03T05:40:22.979Z,2356.00
2018-06-03T05:41:22.978Z,2372.00
2018-06-03T05:42:23.365Z,2376.00
2018-06-03T05:43:23.036Z,2376.00
2018-06-03T05:44:23.017Z,2384.00
2018-06-03T05:45:23.055Z,2428.00
2018-06-03T05:46:23.163Z,2508.00
2018-06-03T05:47:23.138Z,2584.00
2018-06-03T05:48:23.524Z,2632.00
2018-06-03T05:49:23.234Z,2640.00
2018-06-03T05:50:23.251Z,2620.00
2018-06-03T05:51:23.276Z,2636.00
2018-06-03T05:52:23.398Z,2648.00
2018-06-03T05:53:23.369Z,2660.00
2018-06-03T05:54:23.712Z,2660.00
2018-06-03T05:55:23.451Z,2680.00
2018-06-03T05:56:23.485Z,2688.00
2018-06-03T05:57:23.458Z,2716.00
2018-06-03T05:58:23.559Z,2768.00
2018-06-03T05:59:23.530Z,2824.00
2018-06-03T06:00:24.163Z,2876.00
2018-06-03T06:01:23.595Z,2876.00
2018-06-03T06:02:23.629Z,2880.00
2018-06-03T06:03:23.714Z,2900.00
2018-06-03T06:04:23.696Z,2924.00
2018-06-03T06:05:23.762Z,2948.00
2018-06-03T06:06:24.067Z,2976.00
2018-06-03T06:07:23.801Z,2960.00
2018-06-03T06:08:23.897Z,2940.00
2018-06-03T06:09:23.871Z,2932.00
2018-06-03T06:10:23.910Z,2948.00
2018-06-03T06:11:24.038Z,2964.00
2018-06-03T06:12:23.971Z,2984.00
2018-06-03T06:13:24.364Z,2992.00
2018-06-03T06:14:24.046Z,3036.00
2018-06-03T06:15:24.079Z,3052.00
2018-06-03T06:16:24.110Z,3064.00
2018-06-03T06:17:24.161Z,3044.00
2018-06-03T06:18:24.319Z,3040.00
2018-06-03T06:19:24.211Z,3000.00
2018-06-03T06:20:24.606Z,2956.00
2018-06-03T06:21:24.285Z,2968.00
2018-06-03T06:22:24.416Z,3020.00
2018-06-03T06:23:24.389Z,3092.00
2018-06-03T06:24:24.385Z,3144.00
2018-06-03T06:25:24.470Z,3164.00
2018-06-03T06:26:24.545Z,3172.00
2018-06-03T06:27:24.852Z,3180.00
2018-06-03T06:28:24.559Z,3208.00
2018-06-03T06:29:24.608Z,3288.00
2018-06-03T06:30:24.586Z,3384.00
2018-06-03T06:31:24.774Z,3464.00
2018-06-03T06:32:24.710Z,3508.00
2018-06-03T06:33:24.790Z,3528.00
2018-06-03T06:34:25.044Z,3524.00
2018-06-03T06:35:24.798Z,3524.00
2018-06-03T06:36:24.951Z,3544.00
2018-06-03T06:37:25.251Z,3584.00
2018-06-03T06:38:24.888Z,3588.00
2018-06-03T06:39:24.901Z,3540.00
2018-06-03T06:40:24.937Z,3476.00
2018-06-03T06:41:25.268Z,3444.00
2018-06-03T06:42:25.050Z,3472.00
2018-06-03T06:43:25.073Z,3416.00
2018-06-03T06:44:25.071Z,3364.00
2018-06-03T06:45:25.105Z,3264.00
2018-06-03T06:46:25.146Z,3176.00
2018-06-03T06:47:25.185Z,3052.00
2018-06-03T06:48:25.585Z,2964.00
2018-06-03T06:49:25.250Z,2944.00
2018-06-03T06:50:25.284Z,2964.00
2018-06-03T06:51:25.333Z,3004.00
2018-06-03T06:52:25.351Z,3024.00
2018-06-03T06:53:25.538Z,3024.00
2018-06-03T06:54:25.434Z,3004.00
2018-06-03T06:55:25.763Z,2936.00
2018-06-03T06:56:25.492Z,2860.00
2018-06-03T06:57:25.546Z,2892.00
2018-06-03T06:58:25.563Z,2948.00
2018-06-03T06:59:25.598Z,2952.00
2018-06-03T07:00:25.631Z,2964.00
2018-06-03T07:01:25.717Z,3008.00
2018-06-03T07:02:26.005Z,3028.00
2018-06-03T07:03:25.825Z,2980.00
2018-06-03T07:04:25.772Z,2908.00
2018-06-03T07:05:25.837Z,2828.00
2018-06-03T07:06:25.905Z,2740.00
2018-06-03T07:07:25.932Z,2672.00
2018-06-03T07:08:25.918Z,2596.00
2018-06-03T07:09:26.301Z,2512.00
2018-06-03T07:10:25.980Z,2436.00
2018-06-03T07:11:26.018Z,2384.00
2018-06-03T07:12:26.106Z,2360.00
2018-06-03T07:13:26.157Z,2316.00
2018-06-03T07:14:26.157Z,2288.00
2018-06-03T07:15:26.157Z,2284.00
2018-06-03T07:16:26.498Z,2268.00
2018-06-03T07:17:26.227Z,2252.00
2018-06-03T07:18:26.265Z,2224.00
2018-06-03T07:19:26.310Z,2192.00
2018-06-03T07:20:26.332Z,2196.00
2018-06-03T07:21:26.368Z,2248.00
2018-06-03T07:22:26.400Z,2392.00
2018-06-03T07:23:26.755Z,2640.00
2018-06-03T07:24:26.520Z,2848.00
2018-06-03T07:25:26.506Z,2884.00
2018-06-03T07:26:26.590Z,2788.00
2018-06-03T07:27:26.581Z,2708.00
2018-06-03T07:28:26.611Z,2636.00
2018-06-03T07:29:26.647Z,2612.00
2018-06-03T07:30:26.983Z,2692.00
2018-06-03T07:31:26.717Z,2812.00
2018-06-03T07:32:26.749Z,2984.00
2018-06-03T07:33:26.786Z,3232.00
2018-06-03T07:34:26.829Z,3472.00
2018-06-03T07:35:26.855Z,3620.00
2018-06-03T07:36:27.252Z,3756.00
2018-06-03T07:37:26.976Z,3912.00
2018-06-03T07:38:26.967Z,4088.00
2018-06-03T07:39:26.999Z,4232.00
2018-06-03T07:40:27.031Z,4352.00
2018-06-03T07:41:27.070Z,4472.00
2018-06-03T07:42:27.406Z,4620.00
2018-06-03T07:43:27.134Z,4752.00
2018-06-03T07:44:27.188Z,4800.00
2018-06-03T07:45:27.212Z,4800.00
2018-06-03T07:46:27.247Z,4784.00
2018-06-03T07:47:27.281Z,4764.00
2018-06-03T07:48:27.611Z,4784.00
2018-06-03T07:49:27.347Z,4840.00
2018-06-03T07:50:27.435Z,4956.00
2018-06-03T07:51:27.445Z,5100.00
2018-06-03T07:52:27.466Z,5204.00
2018-06-03T07:53:27.488Z,5268.00
2018-06-03T07:54:27.821Z,5260.00
2018-06-03T07:55:27.562Z,5168.00
2018-06-03T07:56:27.599Z,5064.00
2018-06-03T07:57:27.725Z,5008.00
2018-06-03T07:58:27.672Z,5008.00
2018-06-03T07:59:27.713Z,5036.00
2018-06-03T08:00:28.078Z,5024.00
2018-06-03T08:01:27.767Z,4960.00
2018-06-03T08:02:27.801Z,4828.00
2018-06-03T08:03:27.888Z,4628.00
2018-06-03T08:04:27.870Z,4400.00
2018-06-03T08:05:27.905Z,4204.00
2018-06-03T08:06:28.243Z,4156.00
2018-06-03T08:07:28.026Z,4188.00
2018-06-03T08:08:28.015Z,4152.00
2018-06-03T08:09:28.051Z,4048.00
2018-06-03T08:10:28.095Z,3760.00
2018-06-03T08:11:28.117Z,3428.00
2018-06-03T08:12:28.515Z,3096.00
2018-06-03T08:13:28.240Z,2896.00
2018-06-03T08:14:28.223Z,2800.00
2018-06-03T08:15:28.257Z,2732.00
2018-06-03T08:16:28.292Z,2668.00
2018-06-03T08:17:28.327Z,2632.00
2018-06-03T08:18:28.713Z,2664.00
2018-06-03T08:19:28.400Z,2760.00
2018-06-03T08:20:28.437Z,2948.00
2018-06-03T08:21:28.469Z,3120.00
2018-06-03T08:22:28.553Z,3208.00
2018-06-03T08:23:28.593Z,3144.00
2018-06-03T08:24:28.876Z,3060.00
2018-06-03T08:25:28.619Z,2980.00
2018-06-03T08:26:28.647Z,2944.00
2018-06-03T08:27:28.786Z,2864.00
2018-06-03T08:28:28.716Z,2908.00
2018-06-03T08:29:28.800Z,2936.00
2018-06-03T08:30:29.084Z,2976.00
2018-06-03T08:31:28.822Z,3040.00
2018-06-03T08:32:28.858Z,3088.00
2018-06-03T08:33:28.900Z,3060.00
2018-06-03T08:34:28.923Z,3048.00
2018-06-03T08:35:29.013Z,3092.00
2018-06-03T08:36:29.342Z,3128.00
2018-06-03T08:37:29.089Z,3144.00
2018-06-03T08:38:29.068Z,3136.00
2018-06-03T08:39:29.148Z,3236.00
2018-06-03T08:40:29.184Z,3408.00
2018-06-03T08:41:29.168Z,3408.00
2018-06-03T08:42:29.256Z,3424.00
2018-06-03T08:43:29.239Z,3388.00
2018-06-03T08:44:29.291Z,3352.00
2018-06-03T08:45:29.323Z,3316.00
2018-06-03T08:46:29.349Z,3316.00
2018-06-03T08:47:29.385Z,3304.00
2018-06-03T08:48:29.715Z,3256.00
2018-06-03T08:49:29.470Z,3320.00
2018-06-03T08:50:29.485Z,3404.00
2018-06-03T08:51:29.578Z,3464.00
2018-06-03T08:52:29.580Z,3540.00
2018-06-03T08:53:29.704Z,3656.00
2018-06-03T08:54:29.627Z,3668.00
2018-06-03T08:55:29.968Z,3684.00
2018-06-03T08:56:29.706Z,3692.00
2018-06-03T08:57:29.736Z,3676.00
2018-06-03T08:58:29.766Z,3652.00
2018-06-03T08:59:29.829Z,3608.00
2018-06-03T09:00:29.847Z,3568.00
2018-06-03T09:01:29.873Z,3572.00
2018-06-03T09:02:30.209Z,3604.00
2018-06-03T09:03:29.952Z,3724.00
2018-06-03T09:04:30.029Z,3736.00
2018-06-03T09:05:30.071Z,3748.00
2018-06-03T09:06:30.048Z,3772.00
2018-06-03T09:07:30.093Z,3744.00
2018-06-03T09:08:30.183Z,3620.00
2018-06-03T09:09:30.572Z,3472.00
2018-06-03T09:10:30.194Z,3364.00
2018-06-03T09:11:30.276Z,3368.00
2018-06-03T09:12:30.259Z,3364.00
2018-06-03T09:13:30.510Z,3336.00
2018-06-03T09:14:30.416Z,3324.00
2018-06-03T09:15:30.372Z,3312.00
2018-06-03T09:16:30.809Z,3308.00
2018-06-03T09:17:30.512Z,3328.00
2018-06-03T09:18:30.526Z,3324.00
2018-06-03T09:19:30.536Z,3332.00
2018-06-03T09:20:30.614Z,3372.00
2018-06-03T09:21:30.586Z,3412.00
2018-06-03T09:22:30.734Z,3468.00
2018-06-03T09:23:31.063Z,3448.00
2018-06-03T09:24:30.687Z,3428.00
2018-06-03T09:25:30.784Z,3416.00
2018-06-03T09:26:30.785Z,3360.00
2018-06-03T09:27:30.905Z,3360.00
2018-06-03T09:28:30.882Z,3348.00
2018-06-03T09:29:30.904Z,3344.00
2018-06-03T09:30:31.387Z,3352.00
2018-06-03T09:31:30.954Z,3400.00
2018-06-03T09:32:31.033Z,3448.00
2018-06-03T09:33:31.043Z,3496.00
2018-06-03T09:34:31.124Z,3480.00
2018-06-03T09:35:31.074Z,3484.00
2018-06-03T09:36:31.164Z,3464.00
2018-06-03T09:37:31.565Z,3408.00
2018-06-03T09:38:31.268Z,3408.00
2018-06-03T09:39:31.291Z,3412.00
2018-06-03T09:40:31.333Z,3424.00
2018-06-03T09:41:31.390Z,3456.00
2018-06-03T09:42:31.377Z,3536.00
2018-06-03T09:43:31.411Z,3632.00
2018-06-03T09:44:31.774Z,3760.00
2018-06-03T09:45:31.429Z,3840.00
2018-06-03T09:46:31.527Z,3952.00
2018-06-03T09:47:31.560Z,4056.00
2018-06-03T09:48:31.644Z,4148.00
2018-06-03T09:49:31.680Z,4192.00
2018-06-03T09:50:31.676Z,4196.00
2018-06-03T09:51:31.991Z,4152.00
2018-06-03T09:52:31.682Z,4056.00
2018-06-03T09:53:31.778Z,3980.00
2018-06-03T09:54:31.773Z,3992.00
2018-06-03T09:55:31.884Z,4036.00
2018-06-03T09:56:31.839Z,4064.00
2018-06-03T09:57:31.889Z,4124.00
2018-06-03T09:58:32.255Z,4216.00
2018-06-03T09:59:32.024Z,4432.00
2018-06-03T10:00:32.078Z,4724.00
2018-06-03T10:01:32.004Z,4852.00
2018-06-03T10:02:32.191Z,4904.00
2018-06-03T10:03:32.080Z,4860.00
2018-06-03T10:04:32.172Z,4844.00
2018-06-03T10:05:32.491Z,4576.00
2018-06-03T10:06:32.291Z,4320.00
2018-06-03T10:07:32.283Z,4156.00
2018-06-03T10:08:32.295Z,4060.00
2018-06-03T10:09:32.359Z,4128.00
2018-06-03T10:10:32.397Z,3972.00
2018-06-03T10:11:32.356Z,3904.00
2018-06-03T10:12:32.757Z,3788.00
2018-06-03T10:13:32.468Z,3700.00
2018-06-03T10:14:32.479Z,3700.00
2018-06-03T10:15:32.623Z,3836.00
2018-06-03T10:16:32.586Z,3904.00
2018-06-03T10:17:32.660Z,3976.00
2018-06-03T10:18:33.067Z,3972.00
2018-06-03T10:19:32.832Z,4032.00
2018-06-03T10:20:32.731Z,4088.00
2018-06-03T10:21:32.836Z,4176.00
2018-06-03T10:22:32.838Z,4208.00
2018-06-03T10:23:32.868Z,4236.00
2018-06-03T10:24:33.232Z,4208.00
2018-06-03T10:25:32.908Z,4228.00
2018-06-03T10:26:32.891Z,4276.00
2018-06-03T10:27:32.918Z,4364.00
2018-06-03T10:28:33.008Z,4452.00
2018-06-03T10:29:33.035Z,4564.00
2018-06-03T10:30:33.381Z,4672.00
2018-06-03T10:31:33.139Z,4744.00
2018-06-03T10:32:33.140Z,4776.00
2018-06-03T10:33:33.135Z,4944.00
2018-06-03T10:34:33.254Z,5136.00
2018-06-03T10:35:33.205Z,5260.00
2018-06-03T10:36:33.589Z,5300.00
2018-06-03T10:37:33.322Z,5412.00
2018-06-03T10:38:33.409Z,5528.00
2018-06-03T10:39:33.421Z,5708.00
2018-06-03T10:40:33.469Z,5860.00
2018-06-03T10:41:33.469Z,5996.00
2018-06-03T10:42:33.812Z,6128.00
2018-06-03T10:43:33.485Z,6172.00
2018-06-03T10:44:33.632Z,6068.00
2018-06-03T10:45:33.639Z,6112.00
2018-06-03T10:46:33.651Z,6224.00
2018-06-03T10:47:33.807Z,6336.00
2018-06-03T10:48:34.047Z,6428.00
2018-06-03T10:49:33.750Z,6268.00
2018-06-03T10:50:33.735Z,6108.00
2018-06-03T10:51:33.942Z,6000.00
2018-06-03T10:52:33.805Z,5880.00
2018-06-03T10:53:33.897Z,5764.00
2018-06-03T10:54:34.247Z,5596.00
2018-06-03T10:55:33.994Z,5656.00
2018-06-03T10:56:33.961Z,5612.00
2018-06-03T10:57:34.121Z,5436.00
2018-06-03T10:58:34.073Z,5164.00
2018-06-03T10:59:34.134Z,5016.00
2018-06-03T11:00:34.096Z,4952.00
2018-06-03T11:01:34.248Z,4932.00
2018-06-03T11:02:34.217Z,4956.00
2018-06-03T11:03:34.259Z,5008.00
2018-06-03T11:04:34.379Z,5096.00
2018-06-03T11:05:34.324Z,5108.00
2018-06-03T11:06:34.674Z,5148.00
2018-06-03T11:07:34.405Z,5200.00
2018-06-03T11:08:34.377Z,5252.00
2018-06-03T11:09:34.417Z,5360.00
2018-06-03T11:10:34.498Z,5452.00
2018-06-03T11:11:34.542Z,5732.00
2018-06-03T11:12:34.871Z,5932.00
2018-06-03T11:13:34.615Z,6012.00
2018-06-03T11:14:34.693Z,6108.00
2018-06-03T11:15:34.627Z,6316.00
2018-06-03T11:16:34.674Z,6400.00
2018-06-03T11:17:34.714Z,6392.00
2018-06-03T11:18:35.168Z,6452.00
2018-06-03T11:19:34.851Z,6424.00
2018-06-03T11:20:34.864Z,6388.00
2018-06-03T11:21:34.889Z,6352.00
2018-06-03T11:22:34.906Z,6400.00
2018-06-03T11:23:34.989Z,6500.00
2018-06-03T11:24:35.307Z,6496.00
2018-06-03T11:25:35.013Z,6688.00
2018-06-03T11:26:35.088Z,6776.00
2018-06-03T11:27:35.156Z,7004.00
2018-06-03T11:28:35.109Z,7224.00
2018-06-03T11:29:35.278Z,7336.00
2018-06-03T11:30:35.589Z,7584.00
2018-06-03T11:31:35.220Z,7804.00
2018-06-03T11:32:35.348Z,7912.00
2018-06-03T11:33:35.368Z,8044.00
2018-06-03T11:34:35.416Z,7784.00
2018-06-03T11:35:35.347Z,7340.00
2018-06-03T11:36:35.819Z,7060.00
2018-06-03T11:37:35.533Z,6884.00
2018-06-03T11:38:35.527Z,7032.00
2018-06-03T11:39:35.535Z,7360.00
2018-06-03T11:40:35.596Z,7812.00
2018-06-03T11:41:35.614Z,8308.00
2018-06-03T11:42:35.621Z,8420.00
2018-06-03T11:43:35.997Z,8436.00
2018-06-03T11:44:35.761Z,8180.00
2018-06-03T11:45:35.803Z,8204.00
2018-06-03T11:46:35.786Z,8208.00
2018-06-03T11:47:35.809Z,7852.00
2018-06-03T11:48:35.830Z,7340.00
2018-06-03T11:49:35.900Z,7192.00
2018-06-03T11:50:36.238Z,7168.00
2018-06-03T11:51:36.036Z,7232.00
2018-06-03T11:52:36.037Z,7484.00
2018-06-03T11:53:36.137Z,7840.00
2018-06-03T11:54:36.130Z,8568.00
2018-06-03T11:55:36.127Z,9128.00
2018-06-03T11:56:36.170Z,9376.00
2018-06-03T11:57:36.496Z,9548.00
2018-06-03T11:58:36.172Z,9704.00
2018-06-03T11:59:36.375Z,9912.00
2018-06-03T12:00:36.241Z,10244.00
2018-06-03T12:01:36.292Z,10576.00
2018-06-03T12:02:36.320Z,10640.00
2018-06-03T12:03:36.414Z,10488.00
2018-06-03T12:04:36.758Z,10164.00
2018-06-03T12:05:36.425Z,9472.00
2018-06-03T12:06:36.488Z,8916.00
2018-06-03T12:07:36.598Z,8404.00
2018-06-03T12:08:36.635Z,8424.00
2018-06-03T12:09:36.626Z,8780.00
2018-06-03T12:10:36.615Z,9008.00
2018-06-03T12:11:36.982Z,9216.00
2018-06-03T12:12:36.751Z,9276.00
2018-06-03T12:13:36.760Z,9504.00
2018-06-03T12:14:36.814Z,10040.00
2018-06-03T12:15:36.880Z,10168.00
2018-06-03T12:16:36.886Z,10228.00
2018-06-03T12:17:36.927Z,10448.00
2018-06-03T12:18:37.262Z,10696.00
2018-06-03T12:19:36.943Z,10988.00
2018-06-03T12:20:37.019Z,11056.00
2018-06-03T12:21:37.063Z,11092.00
2018-06-03T12:22:37.135Z,11092.00
2018-06-03T12:23:37.124Z,10988.00
2018-06-03T12:24:37.165Z,10668.00
2018-06-03T12:25:37.504Z,10340.00